createdAt,value
2022-10-11T00:00:08.888Z,1.51
2022-10-11T00:02:35.875Z,1.22
2022-10-11T00:05:02.919Z,0.95
2022-10-11T00:07:29.985Z,0.73
2022-10-11T00:09:57.115Z,0.54
2022-10-11T00:12:24.064Z,0.91
2022-10-11T00:14:51.114Z,1.54
2022-10-11T00:17:18.159Z,1.67
2022-10-11T00:19:45.132Z,1.53
2022-10-11T00:22:12.249Z,1.34
2022-10-11T00:24:39.158Z,1.15
2022-10-11T00:27:06.247Z,0.97
2022-10-11T00:29:33.326Z,0.82
2022-10-11T00:32:00.334Z,1.22
2022-10-11T00:34:27.469Z,1.82
2022-10-11T00:36:54.367Z,1.91
2022-10-11T00:39:21.373Z,1.76
2022-10-11T00:41:49.403Z,1.50
2022-10-11T00:44:19.044Z,1.23
2022-10-11T00:46:58.083Z,0.98
2022-10-11T00:49:28.289Z,0.75
2022-10-11T00:51:57.627Z,0.55
2022-10-11T00:54:26.284Z,0.97
2022-10-11T00:56:56.978Z,1.61
2022-10-11T00:59:26.898Z,1.71
2022-10-11T01:01:53.987Z,1.50
2022-10-11T01:04:21.280Z,1.24
2022-10-11T01:06:49.209Z,0.97
2022-10-11T01:09:16.248Z,0.72
2022-10-11T01:11:43.322Z,0.47
2022-10-11T01:14:39.737Z,0.28
2022-10-11T01:17:21.420Z,0.86
2022-10-11T01:19:55.951Z,1.41
2022-10-11T01:22:47.279Z,1.38
2022-10-11T01:25:36.937Z,1.14
2022-10-11T01:28:13.392Z,0.85
2022-10-11T01:30:40.554Z,0.57
2022-10-11T01:33:42.057Z,0.34
2022-10-11T01:36:28.208Z,0.13
2022-10-11T01:39:03.094Z,0.85
2022-10-11T01:41:33.345Z,1.45
2022-10-11T01:44:01.422Z,1.49
2022-10-11T01:46:28.782Z,1.29
2022-10-11T01:48:57.979Z,1.02
2022-10-11T01:51:27.777Z,0.74
2022-10-11T01:54:02.356Z,0.48
2022-10-11T01:56:57.519Z,0.23
2022-10-11T01:59:30.598Z,0.05
2022-10-11T02:02:09.943Z,0.66
2022-10-11T02:04:44.023Z,1.31
2022-10-11T02:07:17.582Z,1.34
2022-10-11T02:09:56.597Z,1.15
2022-10-11T02:12:32.980Z,0.86
2022-10-11T02:15:00.201Z,0.60
2022-10-11T02:17:31.479Z,0.37
2022-10-11T02:19:58.698Z,0.15
2022-10-11T02:22:36.712Z,-0.01
2022-10-11T02:25:06.801Z,0.52
2022-10-11T02:27:34.317Z,1.17
2022-10-11T02:30:02.755Z,1.27
2022-10-11T02:32:29.664Z,1.07
2022-10-11T02:34:58.389Z,0.84
2022-10-11T02:37:33.421Z,0.59
2022-10-11T02:40:08.146Z,0.32
2022-10-11T02:42:43.179Z,0.11
2022-10-11T02:45:14.447Z,-0.04
2022-10-11T02:47:41.371Z,0.49
2022-10-11T02:50:08.631Z,1.10
2022-10-11T02:52:35.670Z,1.22
2022-10-11T02:55:02.722Z,1.06
2022-10-11T02:57:29.774Z,0.80
2022-10-11T02:59:57.015Z,0.53
2022-10-11T03:02:23.991Z,0.28
2022-10-11T03:04:51.008Z,0.06
2022-10-11T03:07:17.952Z,-0.10
2022-10-11T03:09:45.333Z,0.33
2022-10-11T03:12:12.257Z,1.00
2022-10-11T03:14:39.301Z,1.14
2022-10-11T03:17:31.093Z,0.98
2022-10-11T03:19:54.270Z,0.69
2022-10-11T03:22:21.643Z,0.44
2022-10-11T03:24:48.689Z,0.20
2022-10-11T03:27:15.733Z,-0.03
2022-10-11T03:29:42.681Z,-0.20
2022-10-11T03:32:09.727Z,0.22
2022-10-11T03:34:36.666Z,0.87
2022-10-11T03:37:03.659Z,0.98
2022-10-11T03:39:30.759Z,0.81
2022-10-11T03:41:58.016Z,0.55
2022-10-11T03:44:25.058Z,0.27
2022-10-11T03:46:52.103Z,0.00
2022-10-11T03:49:20.138Z,-0.21
2022-10-11T03:51:47.013Z,-0.38
2022-10-11T03:54:14.064Z,0.01
2022-10-11T03:56:41.008Z,0.68
2022-10-11T03:59:07.915Z,0.85
2022-10-11T04:01:38.269Z,0.68
2022-10-11T04:04:05.632Z,0.44
2022-10-11T04:06:51.342Z,0.16
2022-10-11T04:09:18.304Z,-0.09
2022-10-11T04:11:45.225Z,-0.32
2022-10-11T04:14:12.233Z,-0.48
2022-10-11T04:16:40.343Z,-0.05
2022-10-11T04:19:07.471Z,0.62
2022-10-11T04:21:34.456Z,0.76
2022-10-11T04:24:01.568Z,0.61
2022-10-11T04:26:28.717Z,0.36
2022-10-11T04:28:55.720Z,0.09
2022-10-11T04:31:22.814Z,-0.20
2022-10-11T04:33:50.272Z,-0.44
2022-10-11T04:36:17.235Z,-0.66
2022-10-11T04:38:44.307Z,-0.25
2022-10-11T04:41:12.913Z,0.39
2022-10-11T04:43:39.887Z,0.55
2022-10-11T04:46:07.315Z,0.43
2022-10-11T04:48:34.303Z,0.25
2022-10-11T04:51:01.231Z,0.05
2022-10-11T04:53:28.183Z,-0.13
2022-10-11T04:56:04.101Z,-0.31
2022-10-11T04:58:32.215Z,-0.42
2022-10-11T05:00:59.377Z,0.14
2022-10-11T05:03:26.813Z,0.87
2022-10-11T05:05:53.806Z,1.10
2022-10-11T05:08:21.008Z,1.07
2022-10-11T05:11:08.178Z,0.97
2022-10-11T05:13:35.684Z,0.84
2022-10-11T05:16:05.961Z,0.72
2022-10-11T05:18:36.850Z,0.65
2022-10-11T05:21:27.248Z,1.12
2022-10-11T05:23:58.010Z,1.88
2022-10-11T05:26:26.354Z,2.02
2022-10-11T05:28:53.689Z,1.94
2022-10-11T05:31:20.797Z,1.79
2022-10-11T05:33:47.769Z,1.63
2022-10-11T05:36:14.848Z,1.45
2022-10-11T05:38:41.893Z,1.33
2022-10-11T05:41:12.054Z,1.81
2022-10-11T05:43:39.075Z,2.51
2022-10-11T05:46:06.951Z,2.68
2022-10-11T05:48:34.527Z,2.57
2022-10-11T05:51:03.232Z,2.41
2022-10-11T05:53:30.529Z,2.24
2022-10-11T05:55:57.878Z,2.09
2022-10-11T05:58:25.029Z,2.01
2022-10-11T06:00:52.025Z,2.57
2022-10-11T06:03:21.169Z,3.31
2022-10-11T06:05:48.109Z,3.56
2022-10-11T06:08:15.946Z,3.55
2022-10-11T06:10:42.797Z,3.47
2022-10-11T06:13:09.662Z,3.39
2022-10-11T06:15:38.654Z,3.33
2022-10-11T06:18:05.813Z,3.83
2022-10-11T06:20:32.853Z,4.53
2022-10-11T06:22:59.901Z,4.76
2022-10-11T06:25:26.956Z,4.76
2022-10-11T06:27:54.402Z,4.68
2022-10-11T06:30:21.581Z,4.59
2022-10-11T06:32:48.600Z,4.56
2022-10-11T06:35:15.652Z,5.14
2022-10-11T06:37:42.615Z,5.82
2022-10-11T06:40:10.357Z,6.14
2022-10-11T06:42:37.265Z,6.18
2022-10-11T06:45:05.068Z,6.13
2022-10-11T06:47:32.151Z,6.06
2022-10-11T06:49:59.165Z,6.03
2022-10-11T06:52:26.325Z,6.07
2022-10-11T06:54:53.372Z,6.73
2022-10-11T06:57:20.402Z,7.53
2022-10-11T06:59:47.383Z,7.86
2022-10-11T07:02:14.293Z,7.95
2022-10-11T07:04:41.417Z,7.91
2022-10-11T07:07:08.573Z,7.80
2022-10-11T07:09:35.745Z,7.77
2022-10-11T07:12:02.917Z,7.74
2022-10-11T07:14:29.972Z,7.76
2022-10-11T07:16:57.805Z,7.82
2022-10-11T07:19:24.855Z,7.87
2022-10-11T07:21:51.898Z,7.98
2022-10-11T07:24:18.964Z,8.10
2022-10-11T07:26:46.100Z,8.37
2022-10-11T07:29:13.281Z,9.20
2022-10-11T07:31:41.422Z,9.70
2022-10-11T07:34:09.598Z,9.85
2022-10-11T07:36:36.795Z,9.86
2022-10-11T07:39:04.958Z,9.86
2022-10-11T07:41:32.005Z,9.89
2022-10-11T07:43:59.317Z,9.81
2022-10-11T07:46:26.353Z,9.63
2022-10-11T07:48:53.438Z,9.63
2022-10-11T07:51:21.687Z,9.70
2022-10-11T07:53:50.540Z,9.81
2022-10-11T07:56:19.784Z,9.97
2022-10-11T07:58:50.583Z,10.07
2022-10-11T08:01:17.820Z,10.23
2022-10-11T08:03:44.912Z,10.41
2022-10-11T08:06:12.353Z,10.54
2022-10-11T08:08:39.431Z,10.66
2022-10-11T08:11:06.874Z,10.83
2022-10-11T08:13:34.427Z,10.95
2022-10-11T08:16:01.500Z,11.08
2022-10-11T08:18:28.911Z,11.24
2022-10-11T08:20:56.109Z,11.47
2022-10-11T08:23:23.139Z,11.69
2022-10-11T08:25:50.234Z,11.93
2022-10-11T08:28:18.074Z,12.27
2022-10-11T08:30:52.526Z,12.59
2022-10-11T08:33:21.196Z,12.71
2022-10-11T08:35:48.712Z,12.98
2022-10-11T08:38:15.735Z,12.89
2022-10-11T08:40:50.885Z,13.11
2022-10-11T08:43:36.325Z,13.55
2022-10-11T08:46:04.013Z,13.99
2022-10-11T08:48:46.247Z,13.82
2022-10-11T08:51:24.263Z,13.79
2022-10-11T08:54:07.953Z,13.42
2022-10-11T08:56:36.376Z,13.52
2022-10-11T08:59:08.221Z,13.74
2022-10-11T09:01:35.193Z,14.15
2022-10-11T09:04:03.753Z,14.66
2022-10-11T09:06:42.914Z,14.94
2022-10-11T09:09:18.990Z,15.04
2022-10-11T09:12:20.339Z,15.36
2022-10-11T09:15:12.330Z,15.80
2022-10-11T09:17:59.752Z,15.92
2022-10-11T09:20:45.337Z,15.66
2022-10-11T09:23:47.408Z,15.83
2022-10-11T09:26:46.862Z,15.96
2022-10-11T09:29:56.243Z,15.77
2022-10-11T09:32:23.402Z,15.44
2022-10-11T09:34:58.003Z,15.47
2022-10-11T09:37:35.662Z,15.12
2022-10-11T09:40:34.217Z,15.50
2022-10-11T09:43:01.343Z,16.17
2022-10-11T09:45:28.402Z,16.36
2022-10-11T09:47:55.873Z,16.12
2022-10-11T09:50:26.014Z,16.53
2022-10-11T09:52:55.577Z,17.03
2022-10-11T09:55:37.732Z,17.29
2022-10-11T09:58:05.258Z,17.35
2022-10-11T10:00:34.036Z,17.12
2022-10-11T10:03:03.400Z,17.19
2022-10-11T10:05:35.685Z,17.60
2022-10-11T10:08:09.214Z,18.18
2022-10-11T10:10:41.166Z,18.33
2022-10-11T10:13:23.527Z,18.30
2022-10-11T10:15:53.698Z,17.90
2022-10-11T10:18:43.545Z,17.40
2022-10-11T10:21:12.610Z,17.54
2022-10-11T10:23:40.132Z,17.76
2022-10-11T10:26:13.495Z,17.99
2022-10-11T10:28:54.010Z,17.76
2022-10-11T10:31:23.790Z,17.91
2022-10-11T10:33:51.874Z,18.36
2022-10-11T10:36:20.096Z,18.50
2022-10-11T10:38:52.551Z,18.53
2022-10-11T10:41:19.775Z,18.39
2022-10-11T10:43:52.809Z,18.43
2022-10-11T10:46:22.878Z,18.52
2022-10-11T10:49:41.579Z,18.75
2022-10-11T10:52:21.135Z,18.72
2022-10-11T10:55:09.715Z,18.60
2022-10-11T10:57:41.830Z,18.31
2022-10-11T11:00:19.721Z,18.04
2022-10-11T11:02:56.275Z,18.16
2022-10-11T11:05:37.154Z,18.19
2022-10-11T11:08:16.658Z,18.01
2022-10-11T11:11:32.785Z,17.63
2022-10-11T11:14:12.265Z,18.04
2022-10-11T11:16:53.932Z,18.25
2022-10-11T11:19:27.344Z,18.76
2022-10-11T11:21:54.135Z,19.10
2022-10-11T11:24:55.117Z,19.28
2022-10-11T11:27:41.124Z,19.04
2022-10-11T11:30:23.363Z,18.36
2022-10-11T11:33:05.791Z,18.09
2022-10-11T11:35:37.503Z,18.00
2022-10-11T11:38:10.794Z,18.04
2022-10-11T11:40:39.942Z,18.24
2022-10-11T11:43:19.582Z,18.01
2022-10-11T11:45:50.148Z,17.39
2022-10-11T11:48:24.807Z,17.34
2022-10-11T11:51:14.416Z,17.16
2022-10-11T11:53:56.617Z,16.82
2022-10-11T11:56:27.996Z,16.80
2022-10-11T11:59:09.360Z,17.05
2022-10-11T12:01:44.971Z,17.10
2022-10-11T12:04:23.466Z,16.94
2022-10-11T12:10:28.165Z,16.93
2022-10-11T12:13:22.452Z,16.75
2022-10-11T12:16:03.667Z,16.74
2022-10-11T12:18:31.487Z,16.91
2022-10-11T12:21:03.171Z,17.02
2022-10-11T12:23:30.514Z,16.83
2022-10-11T12:26:28.976Z,16.64
2022-10-11T12:29:24.660Z,16.73
2022-10-11T12:31:59.444Z,16.83
2022-10-11T12:37:20.780Z,16.50
2022-10-11T12:39:53.759Z,16.43
2022-10-11T12:42:34.644Z,16.52
2022-10-11T12:45:10.931Z,16.65
2022-10-11T12:47:50.264Z,16.63
2022-10-11T12:50:38.786Z,16.57
2022-10-11T12:53:24.875Z,16.61
2022-10-11T12:56:02.044Z,16.47
2022-10-11T12:58:41.802Z,16.26
2022-10-11T13:01:13.102Z,16.43
2022-10-11T13:03:42.177Z,16.53
2022-10-11T13:06:14.519Z,16.29
2022-10-11T13:08:43.860Z,16.18
2022-10-11T13:11:16.984Z,16.26
2022-10-11T13:13:53.379Z,16.38
2022-10-11T13:16:29.025Z,16.53
2022-10-11T13:19:00.110Z,16.53
2022-10-11T13:21:39.393Z,16.37
2022-10-11T13:24:12.119Z,16.30
2022-10-11T13:26:39.336Z,16.26
2022-10-11T13:29:54.925Z,16.27
2022-10-11T13:32:24.014Z,16.24
2022-10-11T13:37:28.962Z,16.07
2022-10-11T13:39:56.730Z,16.19
2022-10-11T13:42:28.376Z,16.26
2022-10-11T13:44:55.452Z,16.21
2022-10-11T13:47:26.966Z,16.04
2022-10-11T13:50:11.157Z,15.96
2022-10-11T13:53:04.867Z,15.90
2022-10-11T13:55:56.223Z,15.90
2022-10-11T13:58:42.850Z,15.89
2022-10-11T14:01:21.016Z,15.88
2022-10-11T14:03:53.408Z,16.00
2022-10-11T14:06:20.402Z,16.03
2022-10-11T14:09:05.527Z,16.03
2022-10-11T14:11:38.445Z,15.97
2022-10-11T14:14:35.054Z,15.90
2022-10-11T14:17:19.545Z,15.74
2022-10-11T14:19:47.847Z,15.54
2022-10-11T14:22:16.062Z,15.36
2022-10-11T14:24:43.926Z,15.21
2022-10-11T14:27:15.905Z,15.08
2022-10-11T14:29:55.630Z,14.96
2022-10-11T14:32:33.559Z,14.88
2022-10-11T14:35:00.515Z,14.80
2022-10-11T14:37:27.838Z,14.72
2022-10-11T14:39:54.882Z,14.61
2022-10-11T14:42:21.938Z,14.51
2022-10-11T14:44:48.980Z,14.39
2022-10-11T14:47:16.376Z,14.28
2022-10-11T14:49:43.382Z,14.19
2022-10-11T14:52:11.556Z,14.09
2022-10-11T14:54:38.602Z,14.00
2022-10-11T14:57:08.538Z,13.90
2022-10-11T14:59:37.153Z,13.75
2022-10-11T15:02:05.590Z,13.61
2022-10-11T15:04:32.662Z,13.52
2022-10-11T15:06:59.917Z,13.45
2022-10-11T15:09:29.959Z,13.39
2022-10-11T15:11:56.954Z,13.32
2022-10-11T15:14:24.301Z,13.24
2022-10-11T15:16:51.359Z,13.17
2022-10-11T15:19:23.004Z,13.10
2022-10-11T15:21:50.090Z,13.03
2022-10-11T15:24:20.280Z,12.96
2022-10-11T15:26:47.438Z,12.89
2022-10-11T15:29:14.595Z,12.82
2022-10-11T15:31:41.526Z,12.76
2022-10-11T15:34:08.705Z,12.70
2022-10-11T15:36:35.711Z,12.63
2022-10-11T15:39:03.071Z,12.54
2022-10-11T15:41:30.131Z,12.39
2022-10-11T15:43:57.160Z,12.29
2022-10-11T15:46:24.210Z,12.22
2022-10-11T15:48:51.468Z,12.14
2022-10-11T15:51:18.818Z,12.05
2022-10-11T15:53:45.878Z,11.97
2022-10-11T15:56:15.648Z,11.92
2022-10-11T15:58:42.929Z,11.88
2022-10-11T16:01:19.488Z,11.85
2022-10-11T16:03:47.690Z,11.83
2022-10-11T16:06:15.175Z,11.82
2022-10-11T16:08:42.105Z,11.81
2022-10-11T16:11:09.427Z,11.79
2022-10-11T16:13:36.497Z,11.76
2022-10-11T16:16:04.990Z,11.70
2022-10-11T16:18:35.423Z,11.67
2022-10-11T16:21:07.263Z,11.66
2022-10-11T16:23:34.929Z,11.63
2022-10-11T16:26:07.365Z,11.59
2022-10-11T16:28:35.026Z,11.54
2022-10-11T16:31:08.241Z,11.42
2022-10-11T16:33:35.392Z,11.35
2022-10-11T16:36:26.087Z,11.29
2022-10-11T16:38:53.233Z,11.29
2022-10-11T16:41:20.146Z,11.30
2022-10-11T16:43:53.487Z,11.34
2022-10-11T16:46:20.906Z,11.39
2022-10-11T16:48:48.397Z,11.41
2022-10-11T16:51:15.538Z,11.43
2022-10-11T16:53:42.527Z,11.45
2022-10-11T16:56:10.053Z,11.48
2022-10-11T16:58:37.155Z,11.49
2022-10-11T17:01:08.219Z,11.48
2022-10-11T17:03:35.485Z,11.43
2022-10-11T17:06:03.108Z,11.32
2022-10-11T17:08:30.412Z,11.20
2022-10-11T17:10:57.805Z,11.11
2022-10-11T17:13:25.018Z,11.05
2022-10-11T17:15:52.043Z,11.00
2022-10-11T17:18:19.128Z,10.97
2022-10-11T17:20:46.249Z,10.91
2022-10-11T17:23:13.547Z,10.65
2022-10-11T17:25:42.633Z,11.08
2022-10-11T17:28:10.011Z,11.67
2022-10-11T17:30:37.201Z,11.86
2022-10-11T17:33:04.353Z,11.87
2022-10-11T17:35:32.475Z,11.82
2022-10-11T17:38:05.039Z,11.75
2022-10-11T17:40:33.183Z,11.65
2022-10-11T17:43:00.294Z,11.57
2022-10-11T17:45:27.381Z,11.49
2022-10-11T17:47:54.527Z,11.41
2022-10-11T17:50:21.672Z,11.37
2022-10-11T17:52:49.674Z,11.31
2022-10-11T17:55:16.788Z,11.26
2022-10-11T17:57:43.945Z,11.21
2022-10-11T18:00:11.705Z,11.15
2022-10-11T18:02:40.387Z,11.13
2022-10-11T18:05:07.947Z,11.69
2022-10-11T18:07:34.959Z,12.36
2022-10-11T18:10:02.249Z,12.53
2022-10-11T18:12:30.432Z,12.42
2022-10-11T18:14:57.495Z,12.25
2022-10-11T18:17:24.620Z,12.07
2022-10-11T18:19:51.707Z,11.90
2022-10-11T18:22:18.714Z,11.75
2022-10-11T18:24:45.760Z,11.60
2022-10-11T18:27:12.721Z,11.47
2022-10-11T18:29:39.750Z,11.31
2022-10-11T18:32:07.198Z,11.18
2022-10-11T18:34:34.257Z,11.08
2022-10-11T18:37:01.407Z,11.55
2022-10-11T18:39:28.561Z,12.17
2022-10-11T18:41:55.603Z,12.29
2022-10-11T18:44:22.880Z,12.17
2022-10-11T18:46:51.238Z,11.97
2022-10-11T18:49:18.226Z,11.75
2022-10-11T18:51:45.670Z,11.53
2022-10-11T18:54:15.401Z,11.34
2022-10-11T18:56:45.669Z,11.17
2022-10-11T18:59:12.613Z,11.03
2022-10-11T19:01:41.389Z,10.92
2022-10-11T19:04:09.938Z,11.34
2022-10-11T19:06:38.979Z,11.92
2022-10-11T19:09:08.263Z,12.02
2022-10-11T19:11:35.345Z,11.88
2022-10-11T19:14:11.517Z,11.66
2022-10-11T19:16:41.291Z,11.42
2022-10-11T19:19:09.778Z,11.20
2022-10-11T19:21:37.047Z,10.96
2022-10-11T19:24:04.333Z,10.82
2022-10-11T19:26:33.664Z,11.23
2022-10-11T19:29:06.721Z,11.65
2022-10-11T19:31:34.540Z,11.78
2022-10-11T19:34:01.522Z,11.58
2022-10-11T19:36:32.556Z,11.32
2022-10-11T19:39:01.193Z,11.08
2022-10-11T19:41:28.158Z,10.83
2022-10-11T19:43:55.391Z,10.65
2022-10-11T19:49:09.713Z,11.40
2022-10-11T19:51:38.271Z,11.43
2022-10-11T19:54:10.684Z,11.16
2022-10-11T19:56:37.832Z,10.89
2022-10-11T19:59:06.586Z,10.67
2022-10-11T20:01:34.169Z,10.51
2022-10-11T20:04:04.003Z,10.81
2022-10-11T20:06:37.189Z,11.26
2022-10-11T20:09:29.117Z,11.17
2022-10-11T20:11:54.172Z,10.91
2022-10-11T20:14:21.314Z,10.67
2022-10-11T20:16:50.061Z,10.51
2022-10-11T20:19:17.664Z,10.30
2022-10-11T20:21:45.344Z,10.69
2022-10-11T20:24:12.502Z,11.15
2022-10-11T20:26:39.948Z,11.18
2022-10-11T20:29:07.300Z,11.02
2022-10-11T20:31:35.057Z,10.76
2022-10-11T20:34:04.348Z,10.48
2022-10-11T20:36:31.803Z,10.22
2022-10-11T20:38:59.365Z,10.03
2022-10-11T20:41:28.622Z,10.42
2022-10-11T20:43:56.857Z,10.91
2022-10-11T20:46:25.730Z,10.87
2022-10-11T20:48:58.874Z,10.63
2022-10-11T20:51:29.244Z,10.36
2022-10-11T20:53:56.858Z,10.09
2022-10-11T20:56:23.979Z,9.87
2022-10-11T20:58:52.752Z,10.23
2022-10-11T21:01:24.171Z,10.76
2022-10-11T21:03:51.461Z,10.78
2022-10-11T21:06:18.694Z,10.58
2022-10-11T21:08:45.740Z,10.28
2022-10-11T21:11:12.788Z,10.02
2022-10-11T21:13:40.553Z,9.79
2022-10-11T21:16:16.575Z,10.11
2022-10-11T21:18:43.562Z,10.57
2022-10-11T21:21:12.447Z,10.55
2022-10-11T21:23:40.021Z,10.30
2022-10-11T21:26:08.757Z,10.01
2022-10-11T21:28:35.954Z,9.71
2022-10-11T21:31:07.046Z,9.45
2022-10-11T21:33:34.646Z,9.76
2022-10-11T21:36:06.168Z,10.19
2022-10-11T21:38:33.246Z,10.16
2022-10-11T21:41:07.264Z,9.92
2022-10-11T21:43:35.915Z,9.60
2022-10-11T21:46:11.977Z,9.28
2022-10-11T21:48:39.196Z,9.00
2022-10-11T21:51:06.487Z,9.35
2022-10-11T21:53:33.872Z,9.80
2022-10-11T21:56:01.120Z,9.78
2022-10-11T21:58:28.263Z,9.52
2022-10-11T22:00:55.305Z,9.21
2022-10-11T22:03:22.400Z,8.92
2022-10-11T22:05:49.610Z,8.69
2022-10-11T22:08:17.812Z,9.01
2022-10-11T22:10:45.906Z,9.43
2022-10-11T22:13:13.110Z,9.42
2022-10-11T22:15:40.014Z,9.23
2022-10-11T22:18:06.996Z,8.98
2022-10-11T22:20:34.247Z,8.73
2022-10-11T22:23:01.210Z,8.57
2022-10-11T22:25:28.239Z,8.98
2022-10-11T22:27:55.287Z,9.49
2022-10-11T22:30:22.230Z,9.50
2022-10-11T22:32:51.017Z,9.28
2022-10-11T22:35:18.783Z,9.03
2022-10-11T22:37:45.932Z,8.81
2022-10-11T22:40:12.835Z,8.62
2022-10-11T22:42:40.130Z,9.02
2022-10-11T22:45:07.786Z,9.52
2022-10-11T22:47:34.991Z,9.57
2022-10-11T22:50:02.295Z,9.38
2022-10-11T22:52:29.274Z,9.16
2022-10-11T22:54:56.287Z,8.94
2022-10-11T22:57:23.380Z,8.76
2022-10-11T22:59:50.498Z,9.18
2022-10-11T23:02:17.647Z,9.74
2022-10-11T23:04:44.601Z,9.81
2022-10-11T23:07:11.625Z,9.64
2022-10-11T23:09:38.617Z,9.42
2022-10-11T23:12:06.335Z,9.21
2022-10-11T23:14:33.198Z,9.10
2022-10-11T23:17:00.144Z,9.56
2022-10-11T23:19:27.165Z,10.11
2022-10-11T23:21:54.097Z,10.18
2022-10-11T23:24:21.163Z,10.03
2022-10-11T23:26:48.211Z,9.79
2022-10-11T23:29:15.261Z,9.56
2022-10-11T23:31:42.300Z,9.39
2022-10-11T23:34:09.272Z,9.80
2022-10-11T23:36:36.187Z,10.30
2022-10-11T23:39:03.239Z,10.35
2022-10-11T23:41:30.694Z,10.19
2022-10-11T23:43:58.341Z,9.97
2022-10-11T23:46:25.268Z,9.74
2022-10-11T23:48:52.247Z,9.59
2022-10-11T23:51:19.180Z,10.04
2022-10-11T23:53:46.065Z,10.57
2022-10-11T23:56:13.079Z,10.65
2022-10-11T23:58:40.245Z,10.52
